Time;durP1;ratioP1;P1;durP2;ratioP2;P2;SDS_P1;SDS_P2;PMS_P1;PMS_P2;Temp;Humidity;BMP_temperature;BMP_pressure;BME280_temperature;BME280_humidity;BME280_pressure;Samples;Min_cycle;Max_cycle;Signal;HPM_P1;HPM_P2
2020/12/17 00:00:31;;;;;;;21.42;12.63;;;8.00;99.90;;;;;;5094750;28;20591;-64
2020/12/17 00:02:57;;;;;;;20.15;12.38;;;7.90;99.90;;;;;;5095049;28;20181;-64
2020/12/17 00:05:23;;;;;;;21.77;13.27;;;8.00;99.90;;;;;;5094684;28;20163;-64
2020/12/17 00:07:48;;;;;;;19.92;13.45;;;7.90;99.90;;;;;;5095025;28;20618;-64
2020/12/17 00:10:15;;;;;;;19.55;12.93;;;7.90;99.90;;;;;;5094626;28;20167;-64
2020/12/17 00:12:42;;;;;;;22.40;13.75;;;8.00;99.90;;;;;;5094957;28;20187;-65
2020/12/17 00:15:10;;;;;;;18.55;12.60;;;8.00;99.90;;;;;;5094842;28;20272;-65
2020/12/17 00:17:41;;;;;;;21.52;13.43;;;7.90;99.90;;;;;;5094909;28;20568;-65
2020/12/17 00:20:07;;;;;;;20.30;13.55;;;7.90;99.90;;;;;;5094721;28;20496;-64
2020/12/17 00:22:34;;;;;;;19.52;12.57;;;7.90;99.90;;;;;;5094827;28;20262;-65
2020/12/17 00:25:00;;;;;;;18.83;12.93;;;7.90;99.90;;;;;;5094796;28;20182;-64
2020/12/17 00:27:25;;;;;;;21.75;13.32;;;8.00;99.90;;;;;;5094486;28;20156;-65
2020/12/17 00:29:51;;;;;;;20.42;12.90;;;7.90;99.90;;;;;;5094500;28;20211;-65
2020/12/17 00:32:16;;;;;;;22.52;13.65;;;8.00;99.90;;;;;;5093554;28;20163;-65
2020/12/17 00:34:42;;;;;;;20.98;13.45;;;8.00;99.90;;;;;;5097588;28;20618;-64
2020/12/17 00:37:07;;;;;;;23.13;13.48;;;8.00;99.90;;;;;;5098503;28;20163;-64
2020/12/17 00:39:33;;;;;;;20.50;13.40;;;8.00;99.90;;;;;;5098288;28;20171;-64
2020/12/17 00:41:58;;;;;;;23.30;13.80;;;8.00;99.90;;;;;;5098143;28;20171;-64
2020/12/17 00:44:24;;;;;;;23.38;14.43;;;8.00;99.90;;;;;;5097447;28;20175;-64
2020/12/17 00:46:50;;;;;;;22.08;14.48;;;8.00;99.90;;;;;;5098085;28;20183;-64
2020/12/17 00:49:15;;;;;;;24.55;14.75;;;8.00;99.90;;;;;;5098241;28;20203;-64
2020/12/17 00:51:42;;;;;;;23.25;14.75;;;8.00;99.90;;;;;;5098039;28;20506;-64
2020/12/17 00:54:07;;;;;;;23.00;14.10;;;8.00;99.90;;;;;;5098343;28;20156;-65
2020/12/17 00:56:33;;;;;;;22.25;13.10;;;8.00;99.90;;;;;;5097898;28;20174;-64
2020/12/17 00:58:59;;;;;;;22.90;14.10;;;8.00;99.90;;;;;;5098179;28;20202;-64
2020/12/17 01:01:25;;;;;;;25.88;14.20;;;8.00;99.90;;;;;;5097782;28;20164;-65
2020/12/17 01:03:50;;;;;;;25.73;15.38;;;7.90;99.90;;;;;;5097857;28;20166;-64
2020/12/17 01:06:15;;;;;;;25.38;14.82;;;7.80;99.90;;;;;;5098115;28;20492;-64
2020/12/17 01:08:41;;;;;;;23.10;14.95;;;7.80;99.90;;;;;;5097666;28;20191;-65
2020/12/17 01:11:06;;;;;;;28.33;15.48;;;7.70;99.90;;;;;;5097657;28;20167;-65
2020/12/17 01:13:32;;;;;;;28.13;15.98;;;7.70;99.90;;;;;;5097620;28;20172;-64
2020/12/17 01:15:58;;;;;;;23.67;14.75;;;7.60;99.90;;;;;;5098014;28;20580;-64
2020/12/17 01:18:23;;;;;;;23.35;13.65;;;7.50;99.90;;;;;;5097619;28;20168;-64
2020/12/17 01:20:49;;;;;;;25.95;15.48;;;7.50;99.90;;;;;;5097729;28;20194;-64
2020/12/17 01:23:15;;;;;;;27.48;15.20;;;7.50;99.90;;;;;;5097796;28;20164;-65
2020/12/17 01:25:40;;;;;;;24.33;15.15;;;7.50;99.90;;;;;;5097580;28;20167;-64
2020/12/17 01:28:11;;;;;;;23.88;14.65;;;7.40;99.90;;;;;;5097307;28;20631;-65
2020/12/17 01:30:37;;;;;;;26.42;15.40;;;7.40;99.90;;;;;;5097626;28;20168;-65
2020/12/17 01:33:02;;;;;;;24.65;14.50;;;7.40;99.90;;;;;;5097261;28;20168;-65
2020/12/17 01:35:28;;;;;;;27.08;15.25;;;7.40;99.90;;;;;;5097569;28;20174;-65
2020/12/17 01:37:53;;;;;;;22.83;13.82;;;7.40;99.90;;;;;;5097136;28;20179;-64
2020/12/17 01:40:19;;;;;;;24.95;14.32;;;7.40;99.90;;;;;;5097413;28;20584;-64
2020/12/17 01:42:44;;;;;;;24.95;14.27;;;7.30;99.90;;;;;;5097074;28;20196;-64
2020/12/17 01:45:10;;;;;;;24.33;14.45;;;7.30;99.90;;;;;;5096471;28;20216;-64
2020/12/17 01:47:38;;;;;;;25.65;14.55;;;7.20;99.90;;;;;;5097267;28;20577;-64
2020/12/17 01:50:07;;;;;;;24.23;13.98;;;7.20;99.90;;;;;;5097196;28;20195;-64
2020/12/17 01:52:33;;;;;;;21.50;14.00;;;7.10;99.90;;;;;;5096868;28;20536;-64
2020/12/17 01:55:00;;;;;;;25.65;14.32;;;7.00;99.90;;;;;;5097143;28;20168;-64
2020/12/17 01:57:31;;;;;;;29.20;14.73;;;7.00;99.90;;;;;;5095816;28;20163;-64
2020/12/17 02:00:01;;;;;;;22.27;13.75;;;7.00;99.90;;;;;;5097081;28;20155;-64
2020/12/17 02:02:28;;;;;;;27.15;14.40;;;6.90;99.90;;;;;;5095790;28;20167;-64
2020/12/17 02:04:53;;;;;;;26.80;14.50;;;6.90;99.90;;;;;;5097247;28;20171;-64
2020/12/17 02:07:19;;;;;;;26.08;14.15;;;6.90;99.90;;;;;;5095627;28;20172;-64
2020/12/17 02:09:44;;;;;;;25.48;14.05;;;6.90;99.90;;;;;;5096713;28;20198;-64
2020/12/17 02:12:10;;;;;;;25.00;14.43;;;6.90;99.90;;;;;;5096707;28;20174;-64
2020/12/17 02:14:35;;;;;;;27.23;14.60;;;6.80;99.90;;;;;;5096715;28;20258;-64
2020/12/17 02:17:01;;;;;;;29.55;14.52;;;6.80;99.90;;;;;;5096448;28;20202;-64
2020/12/17 02:19:26;;;;;;;28.02;15.10;;;6.80;99.90;;;;;;5097178;28;20164;-65
2020/12/17 02:21:53;;;;;;;29.60;15.18;;;6.70;99.90;;;;;;5096314;28;20164;-64
2020/12/17 02:24:25;;;;;;;28.02;14.77;;;6.80;99.90;;;;;;5096580;28;20661;-64
2020/12/17 02:26:51;;;;;;;26.27;14.13;;;6.70;99.90;;;;;;5096546;28;20178;-64
2020/12/17 02:29:17;;;;;;;27.50;14.88;;;6.80;99.90;;;;;;5096320;28;20191;-65
2020/12/17 02:31:43;;;;;;;23.25;13.43;;;6.80;99.90;;;;;;5096367;28;20164;-65
2020/12/17 02:34:09;;;;;;;23.95;13.75;;;6.90;99.90;;;;;;5096151;28;20163;-65
2020/12/17 02:36:34;;;;;;;25.45;14.02;;;6.90;99.90;;;;;;5096912;28;20537;-64
2020/12/17 02:39:00;;;;;;;23.55;13.00;;;7.00;99.90;;;;;;5096129;28;20219;-65
2020/12/17 02:41:26;;;;;;;25.58;13.75;;;7.10;99.90;;;;;;5096758;28;20167;-65
2020/12/17 02:43:52;;;;;;;23.27;13.27;;;7.10;99.90;;;;;;5095882;28;20171;-65
2020/12/17 02:46:19;;;;;;;21.45;13.25;;;7.10;99.90;;;;;;5095819;28;20511;-63
2020/12/17 02:48:51;;;;;;;22.55;12.90;;;7.20;99.90;;;;;;5095685;28;20183;-63
2020/12/17 02:51:17;;;;;;;24.02;14.02;;;7.20;99.90;;;;;;5095779;28;20245;-63
2020/12/17 02:53:42;;;;;;;21.00;13.07;;;7.20;99.90;;;;;;5095602;28;20637;-63
2020/12/17 02:56:11;;;;;;;21.15;13.30;;;7.30;99.90;;;;;;5095166;28;20205;-63
2020/12/17 02:58:36;;;;;;;22.77;12.52;;;7.30;99.90;;;;;;5095730;28;20175;-63
2020/12/17 03:01:02;;;;;;;20.90;12.63;;;7.30;99.90;;;;;;5096103;28;20171;-63
2020/12/17 03:03:27;;;;;;;24.10;13.43;;;7.40;99.90;;;;;;5095361;28;20202;-65
2020/12/17 03:05:53;;;;;;;19.42;12.07;;;7.40;99.90;;;;;;5095521;28;20220;-63
2020/12/17 03:08:18;;;;;;;22.23;12.55;;;7.40;99.90;;;;;;5095661;28;20198;-63
2020/12/17 03:10:44;;;;;;;20.30;11.70;;;7.50;99.90;;;;;;5095489;28;20182;-63
2020/12/17 03:13:09;;;;;;;19.77;12.23;;;7.50;99.90;;;;;;5096542;28;20670;-63
2020/12/17 03:15:35;;;;;;;22.60;12.40;;;7.50;99.90;;;;;;5097702;28;20196;-63
2020/12/17 03:18:00;;;;;;;21.10;11.95;;;7.60;99.90;;;;;;5100252;28;20262;-65
2020/12/17 03:20:26;;;;;;;20.13;12.30;;;7.60;99.90;;;;;;5099113;28;20173;-65
2020/12/17 03:22:51;;;;;;;20.27;12.88;;;7.50;99.90;;;;;;5105195;28;20168;-65
2020/12/17 03:25:17;;;;;;;20.25;12.00;;;7.60;99.90;;;;;;5106159;28;20212;-65
2020/12/17 03:27:42;;;;;;;18.42;12.20;;;7.50;99.90;;;;;;5101678;28;20167;-65
2020/12/17 03:30:08;;;;;;;18.58;11.85;;;7.50;99.90;;;;;;5094975;28;20199;-64
2020/12/17 03:32:33;;;;;;;22.85;13.52;;;7.50;99.90;;;;;;5094891;28;20486;-64
2020/12/17 03:34:59;;;;;;;22.73;13.10;;;7.50;99.90;;;;;;5095252;28;20167;-64
2020/12/17 03:37:25;;;;;;;21.13;12.35;;;7.50;99.90;;;;;;5094929;28;20661;-65
2020/12/17 03:39:50;;;;;;;21.40;12.20;;;7.40;99.90;;;;;;5094992;28;20178;-65
2020/12/17 03:42:17;;;;;;;22.15;13.13;;;7.40;99.90;;;;;;5094923;28;20171;-65
2020/12/17 03:44:43;;;;;;;21.67;13.07;;;7.40;99.90;;;;;;5095211;28;20218;-65
2020/12/17 03:47:09;;;;;;;24.50;13.77;;;7.40;99.90;;;;;;5094729;28;20198;-64
2020/12/17 03:49:34;;;;;;;21.58;13.38;;;7.40;99.90;;;;;;5094938;28;20195;-64
2020/12/17 03:52:00;;;;;;;18.90;12.25;;;7.30;99.90;;;;;;5094822;28;20171;-64
2020/12/17 03:54:25;;;;;;;20.85;12.70;;;7.30;99.90;;;;;;5094766;28;20167;-65
2020/12/17 03:56:51;;;;;;;22.45;13.38;;;7.30;99.90;;;;;;5094771;28;20167;-64
2020/12/17 03:59:16;;;;;;;22.23;12.82;;;7.20;99.90;;;;;;5094948;28;20657;-65
2020/12/17 04:01:41;;;;;;;26.08;13.10;;;7.20;99.90;;;;;;5095052;28;20179;-64
2020/12/17 04:04:07;;;;;;;20.02;12.68;;;7.20;99.90;;;;;;5094758;28;20174;-64
2020/12/17 04:06:32;;;;;;;25.30;14.25;;;7.20;99.90;;;;;;5094973;28;20611;-64
2020/12/17 04:08:58;;;;;;;23.83;12.00;;;7.10;99.90;;;;;;5098022;28;20222;-64
2020/12/17 04:11:23;;;;;;;23.67;14.15;;;7.10;99.90;;;;;;5099164;28;20159;-64
2020/12/17 04:13:49;;;;;;;22.42;13.23;;;7.10;99.90;;;;;;5098948;28;20197;-64
2020/12/17 04:16:15;;;;;;;22.10;13.63;;;7.00;99.90;;;;;;5098788;28;20172;-64
2020/12/17 04:18:40;;;;;;;23.75;12.95;;;7.00;99.90;;;;;;5098784;28;20171;-65
2020/12/17 04:21:05;;;;;;;23.52;12.93;;;7.00;99.90;;;;;;5098661;28;20171;-64
2020/12/17 04:23:31;;;;;;;23.38;13.93;;;7.00;99.90;;;;;;5098617;28;20547;-64
2020/12/17 04:25:59;;;;;;;22.15;13.32;;;7.00;99.90;;;;;;5098520;28;20197;-64
2020/12/17 04:28:24;;;;;;;25.73;13.82;;;6.90;99.90;;;;;;5098598;28;20203;-64
2020/12/17 04:30:50;;;;;;;23.20;14.40;;;6.90;99.90;;;;;;5098507;28;20494;-65
2020/12/17 04:33:15;;;;;;;24.15;14.50;;;6.80;99.90;;;;;;5098755;28;20167;-65
2020/12/17 04:35:41;;;;;;;24.20;14.02;;;6.70;99.90;;;;;;5098597;28;20178;-64
2020/12/17 04:38:06;;;;;;;21.88;13.13;;;6.60;99.90;;;;;;5098481;28;20160;-64
2020/12/17 04:40:32;;;;;;;22.13;13.30;;;6.60;99.90;;;;;;5098292;28;20168;-64
2020/12/17 04:42:57;;;;;;;28.52;14.23;;;6.50;99.90;;;;;;5098311;28;20164;-64
2020/12/17 04:45:23;;;;;;;27.58;14.27;;;6.40;99.90;;;;;;5097641;28;20175;-64
2020/12/17 04:47:51;;;;;;;20.67;12.30;;;6.30;99.90;;;;;;5098052;28;20156;-64
2020/12/17 04:50:19;;;;;;;26.13;14.50;;;6.30;99.90;;;;;;5097970;28;20176;-64
2020/12/17 04:52:46;;;;;;;25.52;13.80;;;6.20;99.90;;;;;;5097118;28;20172;-64
2020/12/17 04:55:11;;;;;;;29.00;14.57;;;6.20;99.90;;;;;;5097022;28;20160;-64
2020/12/17 04:57:44;;;;;;;28.40;15.38;;;6.10;99.90;;;;;;5097981;28;20607;-64
2020/12/17 05:00:10;;;;;;;27.52;14.77;;;6.10;99.90;;;;;;5098016;28;20175;-64
2020/12/17 05:02:36;;;;;;;26.98;15.73;;;6.10;99.90;;;;;;5097804;28;20262;-64
2020/12/17 05:05:01;;;;;;;23.75;14.02;;;6.10;99.90;;;;;;5097765;28;20175;-65
2020/12/17 05:07:27;;;;;;;26.58;14.43;;;6.10;99.90;;;;;;5097814;28;20163;-64
2020/12/17 05:09:52;;;;;;;24.67;14.77;;;6.10;99.90;;;;;;5097698;28;20191;-64
2020/12/17 05:12:18;;;;;;;26.02;15.13;;;6.20;99.90;;;;;;5098392;28;20213;-64
2020/12/17 05:14:44;;;;;;;25.38;15.10;;;6.20;99.90;;;;;;5097783;28;20481;-65
2020/12/17 05:17:10;;;;;;;24.65;14.82;;;6.20;99.90;;;;;;5097647;28;20178;-64
2020/12/17 05:19:36;;;;;;;23.77;14.57;;;6.20;99.90;;;;;;5096908;28;20168;-64
2020/12/17 05:22:02;;;;;;;27.17;14.82;;;6.20;99.90;;;;;;5097872;28;20198;-64
2020/12/17 05:24:28;;;;;;;26.35;14.23;;;6.20;99.90;;;;;;5097576;28;20167;-64
2020/12/17 05:26:55;;;;;;;22.67;14.23;;;6.20;99.90;;;;;;5097404;28;20168;-64
2020/12/17 05:29:21;;;;;;;24.25;14.38;;;6.30;99.90;;;;;;5097252;28;20230;-64
2020/12/17 05:31:48;;;;;;;25.70;14.38;;;6.20;99.90;;;;;;5097588;28;20168;-65
2020/12/17 05:34:13;;;;;;;23.20;14.43;;;6.20;99.90;;;;;;5097234;28;20625;-64
2020/12/17 05:36:40;;;;;;;24.58;15.48;;;6.30;99.90;;;;;;5097506;28;20172;-64
2020/12/17 05:39:17;;;;;;;26.00;14.38;;;6.30;99.90;;;;;;5097051;28;20171;-64
2020/12/17 05:41:47;;;;;;;25.38;14.13;;;6.20;99.90;;;;;;5097508;28;20509;-64
2020/12/17 05:44:17;;;;;;;25.77;14.32;;;6.20;99.90;;;;;;5096935;28;20163;-64
2020/12/17 05:46:53;;;;;;;28.60;15.18;;;6.20;99.90;;;;;;5097061;28;20193;-64
2020/12/17 05:49:23;;;;;;;23.17;13.68;;;6.20;99.90;;;;;;5096802;28;20278;-65
2020/12/17 05:51:51;;;;;;;24.13;14.40;;;6.20;99.90;;;;;;5097222;28;20581;-64
2020/12/17 05:54:21;;;;;;;24.20;14.05;;;6.20;99.90;;;;;;5095949;28;20254;-65
2020/12/17 05:56:48;;;;;;;23.67;13.90;;;6.20;99.90;;;;;;5096767;28;20604;-65
2020/12/17 05:59:22;;;;;;;25.88;15.07;;;6.30;99.90;;;;;;5096704;28;20482;-64
2020/12/17 06:01:48;;;;;;;21.77;13.68;;;6.30;99.90;;;;;;5096656;28;20584;-64
2020/12/17 06:04:14;;;;;;;21.65;13.75;;;6.30;99.90;;;;;;5096815;28;20250;-64
2020/12/17 06:06:45;;;;;;;23.35;15.05;;;6.30;99.90;;;;;;5096674;28;20167;-64
2020/12/17 06:09:19;;;;;;;23.20;14.13;;;6.30;99.90;;;;;;5096574;28;20175;-64
2020/12/17 06:11:44;;;;;;;23.75;14.40;;;6.30;99.90;;;;;;5096933;28;20170;-64
2020/12/17 06:14:11;;;;;;;26.45;13.57;;;6.30;99.90;;;;;;5096720;28;20580;-64
2020/12/17 06:16:37;;;;;;;25.02;14.27;;;6.30;99.90;;;;;;5095625;28;20167;-64
2020/12/17 06:19:03;;;;;;;22.98;13.25;;;6.30;99.90;;;;;;5095315;28;20167;-64
2020/12/17 06:21:29;;;;;;;21.67;12.80;;;6.30;99.90;;;;;;5095999;28;20183;-64
2020/12/17 06:23:55;;;;;;;21.27;13.50;;;6.30;99.90;;;;;;5095744;28;20292;-64
2020/12/17 06:26:22;;;;;;;22.30;13.63;;;6.30;99.90;;;;;;5096170;28;20603;-64
2020/12/17 06:28:49;;;;;;;24.63;14.13;;;6.30;99.90;;;;;;5096115;28;20192;-64
2020/12/17 06:31:19;;;;;;;22.30;13.48;;;6.30;99.90;;;;;;5094906;28;20156;-64
2020/12/17 06:33:45;;;;;;;22.63;13.70;;;6.30;99.90;;;;;;5096158;28;20599;-64
2020/12/17 06:36:25;;;;;;;30.00;14.32;;;6.30;99.90;;;;;;5095993;28;20216;-64
2020/12/17 06:38:51;;;;;;;21.30;12.82;;;6.30;99.90;;;;;;5095312;28;20159;-64
2020/12/17 06:41:18;;;;;;;22.38;13.10;;;6.30;99.90;;;;;;5095933;28;20626;-63
2020/12/17 06:43:44;;;;;;;22.58;13.13;;;6.30;99.90;;;;;;5096256;28;20190;-64
2020/12/17 06:46:32;;;;;;;19.30;12.38;;;6.30;99.90;;;;;;5095794;28;20277;-64
2020/12/17 06:48:58;;;;;;;23.35;13.10;;;6.30;99.90;;;;;;5094729;28;20583;-64
2020/12/17 06:51:40;;;;;;;20.58;12.95;;;6.30;99.90;;;;;;5095388;28;20160;-65
2020/12/17 06:54:15;;;;;;;22.77;12.50;;;6.30;99.90;;;;;;5095965;28;20162;-64
2020/12/17 06:57:01;;;;;;;21.77;13.02;;;6.30;99.90;;;;;;5095678;28;20579;-64
2020/12/17 06:59:27;;;;;;;22.23;13.50;;;6.30;99.90;;;;;;5095616;28;20231;-64
2020/12/17 07:01:52;;;;;;;22.02;13.40;;;6.30;99.90;;;;;;5095530;28;20672;-64
2020/12/17 07:04:43;;;;;;;23.10;13.23;;;6.30;99.90;;;;;;5095596;28;20171;-64
2020/12/17 07:07:16;;;;;;;21.38;12.75;;;6.30;99.90;;;;;;5094627;28;20171;-64
2020/12/17 07:09:46;;;;;;;20.67;13.27;;;6.30;99.90;;;;;;5095545;28;20210;-64
2020/12/17 07:12:12;;;;;;;24.15;14.25;;;6.30;99.90;;;;;;5095650;28;20258;-64
2020/12/17 07:14:39;;;;;;;22.35;13.55;;;6.30;99.90;;;;;;5095507;28;20170;-64
2020/12/17 07:17:07;;;;;;;22.30;13.07;;;6.20;99.90;;;;;;5095676;28;20168;-64
2020/12/17 07:19:44;;;;;;;21.35;12.88;;;6.20;99.90;;;;;;5097385;28;20167;-64
2020/12/17 07:22:14;;;;;;;22.27;12.80;;;6.30;99.90;;;;;;5098234;28;20171;-64
2020/12/17 07:24:51;;;;;;;21.40;13.07;;;6.20;99.90;;;;;;5098767;28;20151;-64
2020/12/17 07:27:24;;;;;;;21.50;13.57;;;6.20;99.90;;;;;;5101663;28;20163;-64
2020/12/17 07:30:02;;;;;;;23.45;13.18;;;6.20;99.90;;;;;;5101514;28;20190;-68
2020/12/17 07:32:29;;;;;;;22.17;13.70;;;6.20;99.90;;;;;;5107729;28;20158;-64
2020/12/17 07:34:58;;;;;;;22.35;13.52;;;6.20;99.90;;;;;;5108050;28;20627;-65
2020/12/17 07:37:47;;;;;;;20.00;12.63;;;6.20;99.90;;;;;;5103034;28;20246;-64
2020/12/17 07:40:21;;;;;;;21.55;13.18;;;6.30;99.90;;;;;;5094187;28;20246;-64
2020/12/17 07:43:03;;;;;;;21.55;12.70;;;6.30;99.90;;;;;;5094958;28;20223;-64
2020/12/17 07:45:57;;;;;;;18.60;11.90;;;6.30;99.90;;;;;;5094867;28;20222;-64
2020/12/17 07:48:42;;;;;;;20.90;12.95;;;6.30;99.90;;;;;;5094821;28;20198;-64
2020/12/17 07:51:14;;;;;;;22.23;13.07;;;6.30;99.90;;;;;;5094914;28;20584;-64
2020/12/17 07:53:44;;;;;;;21.73;12.52;;;6.30;99.90;;;;;;5094831;28;20155;-64
2020/12/17 07:56:10;;;;;;;19.33;12.80;;;6.30;99.90;;;;;;5094813;28;20163;-64
2020/12/17 07:58:36;;;;;;;23.08;12.60;;;6.20;99.90;;;;;;5094769;28;20174;-64
2020/12/17 08:01:03;;;;;;;21.05;12.70;;;6.30;99.90;;;;;;5094957;28;20187;-64
2020/12/17 08:03:29;;;;;;;20.73;12.32;;;6.30;99.90;;;;;;5095175;28;20197;-64
2020/12/17 08:06:05;;;;;;;23.63;12.90;;;6.30;99.90;;;;;;5094692;28;20434;-64
2020/12/17 08:08:31;;;;;;;20.23;12.93;;;6.30;99.90;;;;;;5094787;28;20191;-64
2020/12/17 08:10:58;;;;;;;22.52;13.23;;;6.30;99.90;;;;;;5094694;28;20221;-64
2020/12/17 08:13:27;;;;;;;20.35;11.80;;;6.30;99.90;;;;;;5094939;28;20167;-64
2020/12/17 08:15:56;;;;;;;20.98;12.65;;;6.40;99.90;;;;;;5094929;28;20244;-64
2020/12/17 08:54:48;;;;;;;18.35;12.27;;;7.00;99.90;;;;;;5867413;22;20196;31
2020/12/17 09:01:22;;;;;;;17.17;11.05;;;7.00;99.90;;;;;;6289879;22;20599;31
2020/12/17 10:00:59;;;;;;;15.07;9.88;;;7.60;99.90;;;;;;6231462;22;20518;-58
2020/12/17 10:10:41;;;;;;;16.48;10.50;;;7.70;99.90;;;;;;6288467;22;20193;31
2020/12/17 10:25:21;;;;;;;14.98;10.00;;;7.80;99.90;;;;;;6293494;22;20199;-58
2020/12/17 10:40:19;;;;;;;17.38;10.05;;;7.90;99.90;;;;;;6178690;23;20211;-58
2020/12/17 10:45:09;;;;;;;17.42;11.07;;;7.90;99.90;;;;;;6160836;22;662428;-55
2020/12/17 10:54:45;;;;;;;15.02;10.00;;;7.90;99.90;;;;;;6206978;22;20527;-58
2020/12/17 11:02:08;;;;;;;16.75;10.18;;;7.90;99.90;;;;;;6180188;22;22754;31
2020/12/17 11:10:46;;;;;;;14.52;9.75;;;8.00;99.90;;;;;;6264603;22;20229;31
2020/12/17 11:18:02;;;;;;;16.38;10.38;;;8.00;99.90;;;;;;6264451;22;20204;31
2020/12/17 11:37:08;;;;;;;14.70;10.18;;;8.20;99.90;;;;;;6257915;22;20197;31
2020/12/17 11:48:37;;;;;;;14.32;9.65;;;8.30;99.90;;;;;;6235299;22;20264;-58
2020/12/17 12:19:19;;;;;;;12.45;8.93;;;8.90;99.90;;;;;;6255878;22;20540;-61
2020/12/17 12:26:35;;;;;;;11.55;8.93;;;9.30;99.90;;;;;;6256545;22;20314;31
2020/12/17 13:01:50;;;;;;;13.23;8.98;;;9.40;99.90;;;;;;6235924;22;20205;31
2020/12/17 13:04:16;;;;;;;14.73;8.70;;;9.30;99.90;;;;;;6239162;22;22304;31
2020/12/17 13:26:46;;;;;;;13.57;9.02;;;9.00;99.90;;;;;;6199661;22;20206;31
2020/12/17 13:39:12;;;;;;;12.32;8.80;;;8.80;99.90;;;;;;6203533;22;20934;31
2020/12/17 13:46:28;;;;;;;12.73;8.57;;;8.80;99.90;;;;;;6204107;22;20425;-61
2020/12/17 13:53:15;;;;;;;13.55;8.68;;;8.70;99.90;;;;;;6090388;23;20212;31
2020/12/17 14:02:56;;;;;;;14.95;10.65;;;8.70;99.90;;;;;;6073849;23;386964;31
2020/12/17 14:44:13;;;;;;;14.77;9.45;;;8.70;99.90;;;;;;5885532;22;20951;-63
2020/12/17 15:10:29;;;;;;;15.90;11.00;;;8.70;99.90;;;;;;6319150;22;21496;-62
2020/12/17 15:32:48;;;;;;;13.35;10.13;;;8.60;99.90;;;;;;6283931;22;20204;-63
2020/12/17 15:39:36;;;;;;;13.63;10.20;;;8.50;99.90;;;;;;6305093;22;20210;31
2020/12/17 15:46:52;;;;;;;13.60;9.60;;;8.50;99.90;;;;;;6307972;22;20892;31
2020/12/17 15:51:43;;;;;;;13.35;9.95;;;8.50;99.90;;;;;;6307727;22;20189;31
2020/12/17 16:02:07;;;;;;;13.90;10.15;;;8.50;99.90;;;;;;6183466;22;398873;31
2020/12/17 16:43:42;;;;;;;16.75;11.13;;;8.00;99.90;;;;;;6197690;22;20521;-58
2020/12/17 16:53:15;;;;;;;15.63;11.68;;;7.80;99.90;;;;;;6184830;22;20195;31
2020/12/17 16:58:15;;;;;;;15.40;11.77;;;7.80;99.90;;;;;;6167310;22;20540;31
2020/12/17 17:03:07;;;;;;;18.75;12.07;;;7.90;99.90;;;;;;6120757;23;399495;31
2020/12/17 17:13:49;;;;;;;16.83;11.48;;;8.00;99.90;;;;;;6136793;23;20252;31
2020/12/17 17:25:58;;;;;;;16.67;12.15;;;8.10;99.90;;;;;;6135934;23;20197;31
2020/12/17 17:28:23;;;;;;;17.23;11.73;;;8.10;99.90;;;;;;6118642;23;393119;31
2020/12/17 17:42:56;;;;;;;15.95;11.98;;;8.20;99.90;;;;;;6117931;23;404273;31
2020/12/17 17:47:47;;;;;;;16.20;11.80;;;8.20;99.90;;;;;;6116486;23;397368;31
2020/12/17 17:57:28;;;;;;;16.48;12.65;;;8.20;99.90;;;;;;6134170;23;20189;31
2020/12/17 18:16:52;;;;;;;19.27;12.95;;;8.30;99.90;;;;;;6281328;22;22256;-59
2020/12/17 18:31:26;;;;;;;19.10;12.98;;;8.40;99.90;;;;;;6254041;22;20564;31
2020/12/17 18:33:49;;;;;;;17.88;13.65;;;8.40;99.90;;;;;;6255242;22;20195;31
2020/12/17 18:53:22;;;;;;;18.13;14.02;;;8.40;99.90;;;;;;6236514;22;391246;31
2020/12/17 19:49:14;;;;;;;19.30;14.40;;;8.70;99.90;;;;;;6230341;22;422531;31
2020/12/17 19:51:39;;;;;;;18.48;13.98;;;8.70;99.90;;;;;;6251131;22;20233;31
2020/12/17 20:01:31;;;;;;;19.63;13.23;;;8.50;99.90;;;;;;6162580;22;397254;31
2020/12/17 20:40:24;;;;;;;16.88;12.75;;;8.20;99.90;;;;;;6178569;22;20232;31
2020/12/17 20:42:50;;;;;;;19.08;12.25;;;8.30;99.90;;;;;;6162105;22;390431;31
2020/12/17 20:45:15;;;;;;;16.02;12.02;;;8.30;99.90;;;;;;6180816;22;20187;31
2020/12/17 20:50:06;;;;;;;15.38;11.57;;;8.30;99.90;;;;;;6169114;22;317072;31
2020/12/17 20:52:32;;;;;;;17.42;11.73;;;8.30;99.90;;;;;;6179613;22;21616;31
2020/12/17 20:54:57;;;;;;;19.00;13.07;;;8.30;99.90;;;;;;6178880;22;22738;31
2020/12/17 21:21:09;;;;;;;16.02;12.10;;;8.20;99.90;;;;;;6202550;22;20210;31
2020/12/17 21:30:29;;;;;;;16.02;12.38;;;8.20;99.90;;;;;;6277821;22;410024;31
2020/12/17 21:49:52;;;;;;;16.67;11.10;;;8.20;99.90;;;;;;6287298;22;20721;31
2020/12/17 21:54:43;;;;;;;15.45;10.48;;;8.20;99.90;;;;;;6286801;22;22624;31
2020/12/17 22:07:09;;;;;;;14.38;10.40;;;8.20;99.90;;;;;;6257505;22;20415;31
2020/12/17 22:30:51;;;;;;;13.70;8.75;;;8.20;99.90;;;;;;6270064;22;395598;31
2020/12/17 22:33:16;;;;;;;14.25;9.48;;;8.20;99.90;;;;;;6286544;22;20280;31
2020/12/17 22:45:49;;;;;;;12.18;8.93;;;8.00;99.90;;;;;;6321658;22;20521;31
2020/12/17 22:52:34;;;;;;;15.00;9.27;;;7.90;99.90;;;;;;6233612;22;20523;-58
2020/12/17 22:59:53;;;;;;;14.68;10.07;;;7.60;99.90;;;;;;6200726;22;20188;31
2020/12/17 23:04:44;;;;;;;15.13;9.57;;;7.50;99.90;;;;;;6182222;22;387793;31
2020/12/17 23:53:33;;;;;;;16.52;10.40;;;7.30;99.90;;;;;;6205397;22;20520;31
